sensor_id;sensor_type;location;lat;lon;timestamp;pressure;altitude;pressure_sealevel;temperature;humidity
18858;BME280;9558;50.178;8.370;2023-12-04T00:02:11;98320.94;;;-1.47;97.42
18858;BME280;9558;50.178;8.370;2023-12-04T00:04:58;98323.69;;;-1.50;96.26
18858;BME280;9558;50.178;8.370;2023-12-04T00:07:44;98313.97;;;-1.58;95.92
18858;BME280;9558;50.178;8.370;2023-12-04T00:10:33;98302.84;;;-1.55;96.63
18858;BME280;9558;50.178;8.370;2023-12-04T00:13:19;98301.50;;;-1.61;96.17
18858;BME280;9558;50.178;8.370;2023-12-04T00:16:07;98301.97;;;-1.68;96.34
18858;BME280;9558;50.178;8.370;2023-12-04T00:18:54;98294.09;;;-1.78;96.04
18858;BME280;9558;50.178;8.370;2023-12-04T00:21:40;98292.47;;;-1.79;95.95
18858;BME280;9558;50.178;8.370;2023-12-04T00:24:27;98290.66;;;-1.92;96.05
18858;BME280;9558;50.178;8.370;2023-12-04T00:27:15;98283.00;;;-1.90;96.23
18858;BME280;9558;50.178;8.370;2023-12-04T00:30:03;98282.16;;;-1.91;96.11
18858;BME280;9558;50.178;8.370;2023-12-04T00:32:50;98270.75;;;-1.98;95.95
18858;BME280;9558;50.178;8.370;2023-12-04T00:35:36;98277.84;;;-2.03;96.72
18858;BME280;9558;50.178;8.370;2023-12-04T00:38:23;98273.88;;;-2.07;96.43
18858;BME280;9558;50.178;8.370;2023-12-04T00:41:10;98262.47;;;-2.14;96.67
18858;BME280;9558;50.178;8.370;2023-12-04T00:43:58;98253.03;;;-2.12;96.81
18858;BME280;9558;50.178;8.370;2023-12-04T00:46:45;98254.22;;;-2.18;96.50
18858;BME280;9558;50.178;8.370;2023-12-04T00:49:32;98256.22;;;-2.23;97.12
18858;BME280;9558;50.178;8.370;2023-12-04T00:52:18;98247.44;;;-2.32;97.75
18858;BME280;9558;50.178;8.370;2023-12-04T00:55:06;98242.56;;;-2.35;97.91
18858;BME280;9558;50.178;8.370;2023-12-04T00:57:53;98244.56;;;-2.40;98.08
18858;BME280;9558;50.178;8.370;2023-12-04T01:00:41;98236.59;;;-2.48;99.09
18858;BME280;9558;50.178;8.370;2023-12-04T01:03:27;98236.41;;;-2.45;98.56
18858;BME280;9558;50.178;8.370;2023-12-04T01:06:21;98234.78;;;-2.46;98.37
18858;BME280;9558;50.178;8.370;2023-12-04T01:09:09;98236.41;;;-2.45;98.81
18858;BME280;9558;50.178;8.370;2023-12-04T01:11:55;98231.53;;;-2.48;98.78
18858;BME280;9558;50.178;8.370;2023-12-04T01:14:42;98227.38;;;-2.49;100.00
18858;BME280;9558;50.178;8.370;2023-12-04T01:17:30;98226.56;;;-2.50;99.61
18858;BME280;9558;50.178;8.370;2023-12-04T01:20:17;98226.47;;;-2.48;99.52
18858;BME280;9558;50.178;8.370;2023-12-04T01:23:04;98229.38;;;-2.40;99.50
18858;BME280;9558;50.178;8.370;2023-12-04T01:25:50;98224.66;;;-2.46;100.00
18858;BME280;9558;50.178;8.370;2023-12-04T01:28:37;98219.56;;;-2.46;99.92
18858;BME280;9558;50.178;8.370;2023-12-04T01:31:24;98208.53;;;-2.45;99.84
18858;BME280;9558;50.178;8.370;2023-12-04T01:34:12;98202.56;;;-2.44;99.72
18858;BME280;9558;50.178;8.370;2023-12-04T01:36:58;98199.31;;;-2.46;100.00
18858;BME280;9558;50.178;8.370;2023-12-04T01:39:45;98190.81;;;-2.45;100.00
18858;BME280;9558;50.178;8.370;2023-12-04T01:42:32;98197.69;;;-2.47;100.00
18858;BME280;9558;50.178;8.370;2023-12-04T01:45:19;98206.91;;;-2.46;99.92
18858;BME280;9558;50.178;8.370;2023-12-04T01:48:06;98203.94;;;-2.53;99.70
18858;BME280;9558;50.178;8.370;2023-12-04T01:50:56;98201.31;;;-2.51;100.00
18858;BME280;9558;50.178;8.370;2023-12-04T01:53:47;98208.00;;;-2.50;99.55
18858;BME280;9558;50.178;8.370;2023-12-04T01:56:34;98209.81;;;-2.52;99.86
18858;BME280;9558;50.178;8.370;2023-12-04T01:59:22;98209.72;;;-2.51;99.79
18858;BME280;9558;50.178;8.370;2023-12-04T02:02:10;98215.06;;;-2.55;99.52
18858;BME280;9558;50.178;8.370;2023-12-04T02:04:57;98213.25;;;-2.53;99.93
18858;BME280;9558;50.178;8.370;2023-12-04T02:07:47;98206.91;;;-2.61;100.00
18858;BME280;9558;50.178;8.370;2023-12-04T02:10:34;98205.28;;;-2.62;100.00
18858;BME280;9558;50.178;8.370;2023-12-04T02:13:21;98199.31;;;-2.61;100.00
18858;BME280;9558;50.178;8.370;2023-12-04T02:16:09;98190.09;;;-2.62;100.00
18858;BME280;9558;50.178;8.370;2023-12-04T02:18:56;98192.38;;;-2.57;100.00
18858;BME280;9558;50.178;8.370;2023-12-04T02:21:43;98186.66;;;-2.61;100.00
18858;BME280;9558;50.178;8.370;2023-12-04T02:24:31;98183.22;;;-2.59;100.00
18858;BME280;9558;50.178;8.370;2023-12-04T02:27:23;98178.16;;;-2.59;100.00
18858;BME280;9558;50.178;8.370;2023-12-04T02:30:12;98179.06;;;-2.61;100.00
18858;BME280;9558;50.178;8.370;2023-12-04T02:33:00;98173.09;;;-2.59;100.00
18858;BME280;9558;50.178;8.370;2023-12-04T02:35:48;98174.53;;;-2.55;100.00
18858;BME280;9558;50.178;8.370;2023-12-04T02:38:36;98168.03;;;-2.59;100.00
18858;BME280;9558;50.178;8.370;2023-12-04T02:41:24;98161.50;;;-2.64;100.00
18858;BME280;9558;50.178;8.370;2023-12-04T02:44:11;98163.84;;;-2.61;100.00
18858;BME280;9558;50.178;8.370;2023-12-04T02:46:58;98154.63;;;-2.62;100.00
18858;BME280;9558;50.178;8.370;2023-12-04T02:49:44;98146.22;;;-2.62;100.00
18858;BME280;9558;50.178;8.370;2023-12-04T02:52:31;98138.16;;;-2.69;100.00
18858;BME280;9558;50.178;8.370;2023-12-04T02:55:18;98132.75;;;-2.63;100.00
18858;BME280;9558;50.178;8.370;2023-12-04T02:58:06;98133.25;;;-2.57;100.00
18858;BME280;9558;50.178;8.370;2023-12-04T03:00:53;98121.53;;;-2.58;100.00
18858;BME280;9558;50.178;8.370;2023-12-04T03:03:40;98120.78;;;-2.61;100.00
18858;BME280;9558;50.178;8.370;2023-12-04T03:06:27;98113.09;;;-2.59;100.00
18858;BME280;9558;50.178;8.370;2023-12-04T03:09:13;98110.38;;;-2.56;100.00
18858;BME280;9558;50.178;8.370;2023-12-04T03:12:00;98119.00;;;-2.58;100.00
18858;BME280;9558;50.178;8.370;2023-12-04T03:14:48;98109.00;;;-2.62;100.00
18858;BME280;9558;50.178;8.370;2023-12-04T03:17:35;98108.75;;;-2.57;100.00
18858;BME280;9558;50.178;8.370;2023-12-04T03:20:22;98096.91;;;-2.56;100.00
18858;BME280;9558;50.178;8.370;2023-12-04T03:23:09;98097.78;;;-2.57;100.00
18858;BME280;9558;50.178;8.370;2023-12-04T03:25:55;98095.25;;;-2.57;100.00
18858;BME280;9558;50.178;8.370;2023-12-04T03:28:42;98094.75;;;-2.63;99.98
18858;BME280;9558;50.178;8.370;2023-12-04T03:31:30;98080.63;;;-2.67;99.83
18858;BME280;9558;50.178;8.370;2023-12-04T03:34:19;98079.19;;;-2.71;99.75
18858;BME280;9558;50.178;8.370;2023-12-04T03:37:06;98067.44;;;-2.72;99.97
18858;BME280;9558;50.178;8.370;2023-12-04T03:39:53;98068.53;;;-2.76;99.78
18858;BME280;9558;50.178;8.370;2023-12-04T03:42:39;98070.63;;;-2.83;99.49
18858;BME280;9558;50.178;8.370;2023-12-04T03:45:26;98076.50;;;-2.82;99.34
18858;BME280;9558;50.178;8.370;2023-12-04T03:48:14;98057.22;;;-2.85;99.52
18858;BME280;9558;50.178;8.370;2023-12-04T03:51:01;98054.78;;;-2.86;99.00
18858;BME280;9558;50.178;8.370;2023-12-04T03:53:48;98055.88;;;-2.90;99.27
18858;BME280;9558;50.178;8.370;2023-12-04T03:56:35;98053.63;;;-2.95;98.52
18858;BME280;9558;50.178;8.370;2023-12-04T03:59:21;98040.19;;;-2.96;99.04
18858;BME280;9558;50.178;8.370;2023-12-04T04:02:08;98047.03;;;-2.98;99.35
18858;BME280;9558;50.178;8.370;2023-12-04T04:04:56;98050.66;;;-3.02;98.84
18858;BME280;9558;50.178;8.370;2023-12-04T04:07:43;98054.91;;;-3.02;98.95
18858;BME280;9558;50.178;8.370;2023-12-04T04:10:30;98047.94;;;-2.99;99.37
18858;BME280;9558;50.178;8.370;2023-12-04T04:13:17;98050.47;;;-2.99;98.47
18858;BME280;9558;50.178;8.370;2023-12-04T04:16:05;98056.97;;;-2.95;98.68
18858;BME280;9558;50.178;8.370;2023-12-04T04:18:52;98059.88;;;-3.01;98.18
18858;BME280;9558;50.178;8.370;2023-12-04T04:21:40;98057.16;;;-2.98;98.46
18858;BME280;9558;50.178;8.370;2023-12-04T04:24:27;98061.53;;;-3.00;98.35
18858;BME280;9558;50.178;8.370;2023-12-04T04:27:15;98064.94;;;-3.01;97.98
18858;BME280;9558;50.178;8.370;2023-12-04T04:30:02;98070.72;;;-2.99;97.64
18858;BME280;9558;50.178;8.370;2023-12-04T04:32:49;98074.19;;;-3.00;97.13
18858;BME280;9558;50.178;8.370;2023-12-04T04:35:36;98075.97;;;-3.02;97.83
18858;BME280;9558;50.178;8.370;2023-12-04T04:38:24;98069.13;;;-3.00;97.87
18858;BME280;9558;50.178;8.370;2023-12-04T04:41:13;98063.06;;;-2.97;98.01
18858;BME280;9558;50.178;8.370;2023-12-04T04:44:00;98062.97;;;-2.96;97.96
18858;BME280;9558;50.178;8.370;2023-12-04T04:46:46;98060.25;;;-2.92;97.96
18858;BME280;9558;50.178;8.370;2023-12-04T04:49:33;98054.34;;;-2.93;97.28
18858;BME280;9558;50.178;8.370;2023-12-04T04:52:20;98049.22;;;-2.91;97.53
18858;BME280;9558;50.178;8.370;2023-12-04T04:55:08;98049.72;;;-2.86;97.54
18858;BME280;9558;50.178;8.370;2023-12-04T04:57:55;98036.56;;;-2.91;97.78
18858;BME280;9558;50.178;8.370;2023-12-04T05:00:43;98021.16;;;-2.88;97.88
18858;BME280;9558;50.178;8.370;2023-12-04T05:03:29;98019.34;;;-2.86;96.83
18858;BME280;9558;50.178;8.370;2023-12-04T05:06:16;98017.81;;;-2.89;97.10
18858;BME280;9558;50.178;8.370;2023-12-04T05:09:03;98010.13;;;-2.87;97.27
18858;BME280;9558;50.178;8.370;2023-12-04T05:11:51;98003.25;;;-2.85;97.38
18858;BME280;9558;50.178;8.370;2023-12-04T05:14:38;98003.97;;;-2.83;97.01
18858;BME280;9558;50.178;8.370;2023-12-04T05:17:25;98011.47;;;-2.82;97.29
18858;BME280;9558;50.178;8.370;2023-12-04T05:20:12;98005.78;;;-2.85;96.15
18858;BME280;9558;50.178;8.370;2023-12-04T05:22:59;98010.84;;;-2.85;95.71
18858;BME280;9558;50.178;8.370;2023-12-04T05:25:46;98015.72;;;-2.82;96.09
18858;BME280;9558;50.178;8.370;2023-12-04T05:28:34;98003.34;;;-2.87;95.43
18858;BME280;9558;50.178;8.370;2023-12-04T05:31:21;98003.97;;;-2.83;94.98
18858;BME280;9558;50.178;8.370;2023-12-04T05:34:07;98003.16;;;-2.84;94.88
18858;BME280;9558;50.178;8.370;2023-12-04T05:36:54;98003.34;;;-2.87;94.73
18858;BME280;9558;50.178;8.370;2023-12-04T05:39:41;97995.84;;;-2.88;94.95
18858;BME280;9558;50.178;8.370;2023-12-04T05:42:28;97994.22;;;-2.89;94.79
18858;BME280;9558;50.178;8.370;2023-12-04T05:45:16;97988.53;;;-2.93;94.60
18858;BME280;9558;50.178;8.370;2023-12-04T05:48:03;97991.69;;;-2.89;95.76
18858;BME280;9558;50.178;8.370;2023-12-04T05:50:50;97984.09;;;-2.89;95.71
18858;BME280;9558;50.178;8.370;2023-12-04T05:53:37;97972.13;;;-2.87;95.90
18858;BME280;9558;50.178;8.370;2023-12-04T05:56:23;97976.00;;;-2.82;95.89
18858;BME280;9558;50.178;8.370;2023-12-04T05:59:10;97968.16;;;-2.77;95.49
18858;BME280;9558;50.178;8.370;2023-12-04T06:01:58;97959.81;;;-2.79;95.75
18858;BME280;9558;50.178;8.370;2023-12-04T06:04:45;97959.81;;;-2.79;95.29
18858;BME280;9558;50.178;8.370;2023-12-04T06:07:32;97952.31;;;-2.81;94.49
18858;BME280;9558;50.178;8.370;2023-12-04T06:10:18;97947.34;;;-2.82;94.54
18858;BME280;9558;50.178;8.370;2023-12-04T06:13:05;97950.88;;;-2.85;95.17
18858;BME280;9558;50.178;8.370;2023-12-04T06:15:52;97954.94;;;-2.82;94.93
18858;BME280;9558;50.178;8.370;2023-12-04T06:18:40;97963.63;;;-2.86;93.18
18858;BME280;9558;50.178;8.370;2023-12-04T06:21:26;97960.00;;;-2.82;94.28
18858;BME280;9558;50.178;8.370;2023-12-04T06:24:14;97967.41;;;-2.79;94.05
18858;BME280;9558;50.178;8.370;2023-12-04T06:27:01;97961.66;;;-2.81;93.55
18858;BME280;9558;50.178;8.370;2023-12-04T06:29:50;97967.75;;;-2.71;94.32
18858;BME280;9558;50.178;8.370;2023-12-04T06:32:37;97963.69;;;-2.73;93.17
18858;BME280;9558;50.178;8.370;2023-12-04T06:35:15;97965.91;;;-2.69;93.43
18858;BME280;9558;50.178;8.370;2023-12-04T06:38:06;97973.72;;;-2.72;92.13
18858;BME280;9558;50.178;8.370;2023-12-04T06:40:53;97969.38;;;-2.70;91.56
18858;BME280;9558;50.178;8.370;2023-12-04T06:43:40;97953.78;;;-2.64;93.63
18858;BME280;9558;50.178;8.370;2023-12-04T06:46:29;97960.28;;;-2.59;92.70
18858;BME280;9558;50.178;8.370;2023-12-04T06:49:17;97951.69;;;-2.57;93.95
18858;BME280;9558;50.178;8.370;2023-12-04T06:52:06;97942.16;;;-2.53;94.04
18858;BME280;9558;50.178;8.370;2023-12-04T06:54:53;97937.81;;;-2.51;93.96
18858;BME280;9558;50.178;8.370;2023-12-04T06:57:39;97931.72;;;-2.49;94.28
18858;BME280;9558;50.178;8.370;2023-12-04T07:00:26;97927.47;;;-2.48;93.91
18858;BME280;9558;50.178;8.370;2023-12-04T07:03:13;97912.97;;;-2.46;92.87
18858;BME280;9558;50.178;8.370;2023-12-04T07:06:00;97906.81;;;-2.42;93.05
18858;BME280;9558;50.178;8.370;2023-12-04T07:08:48;97898.09;;;-2.38;93.08
18858;BME280;9558;50.178;8.370;2023-12-04T07:11:34;97900.84;;;-2.41;92.71
18858;BME280;9558;50.178;8.370;2023-12-04T07:14:21;97906.81;;;-2.42;91.44
18858;BME280;9558;50.178;8.370;2023-12-04T07:17:09;97900.94;;;-2.42;92.02
18858;BME280;9558;50.178;8.370;2023-12-04T07:19:57;97898.09;;;-2.38;91.89
18858;BME280;9558;50.178;8.370;2023-12-04T07:22:43;97885.13;;;-2.33;91.45
18858;BME280;9558;50.178;8.370;2023-12-04T07:25:31;97887.53;;;-2.32;91.54
18858;BME280;9558;50.178;8.370;2023-12-04T07:28:18;97884.09;;;-2.31;91.06
18858;BME280;9558;50.178;8.370;2023-12-04T07:31:06;97898.41;;;-2.30;91.88
18858;BME280;9558;50.178;8.370;2023-12-04T07:33:53;97882.00;;;-2.24;92.19
18858;BME280;9558;50.178;8.370;2023-12-04T07:36:39;97888.38;;;-2.31;87.18
18858;BME280;9558;50.178;8.370;2023-12-04T07:39:26;97884.44;;;-2.22;90.75
18858;BME280;9558;50.178;8.370;2023-12-04T07:42:14;97893.66;;;-2.21;89.90
18858;BME280;9558;50.178;8.370;2023-12-04T07:45:01;97884.84;;;-2.16;91.53
18858;BME280;9558;50.178;8.370;2023-12-04T07:47:48;97882.19;;;-2.14;89.62
18858;BME280;9558;50.178;8.370;2023-12-04T07:50:36;97871.34;;;-2.16;87.45
18858;BME280;9558;50.178;8.370;2023-12-04T07:53:23;97868.50;;;-2.24;87.51
18858;BME280;9558;50.178;8.370;2023-12-04T07:56:11;97880.06;;;-2.20;88.35
18858;BME280;9558;50.178;8.370;2023-12-04T07:59:00;97884.91;;;-2.17;89.03
18858;BME280;9558;50.178;8.370;2023-12-04T08:01:46;97885.00;;;-2.19;89.38
18858;BME280;9558;50.178;8.370;2023-12-04T08:04:33;97879.66;;;-2.14;88.38
18858;BME280;9558;50.178;8.370;2023-12-04T08:07:20;97884.63;;;-2.13;87.25
18858;BME280;9558;50.178;8.370;2023-12-04T08:10:08;97874.16;;;-2.08;88.10
18858;BME280;9558;50.178;8.370;2023-12-04T08:12:55;97867.88;;;-2.15;88.61
18858;BME280;9558;50.178;8.370;2023-12-04T08:15:43;97876.41;;;-2.16;88.63
18858;BME280;9558;50.178;8.370;2023-12-04T08:18:30;97871.13;;;-2.13;87.92
18858;BME280;9558;50.178;8.370;2023-12-04T08:21:17;97864.13;;;-2.10;88.57
18858;BME280;9558;50.178;8.370;2023-12-04T08:24:04;97861.19;;;-2.03;88.70
18858;BME280;9558;50.178;8.370;2023-12-04T08:26:50;97853.47;;;-2.02;87.33
18858;BME280;9558;50.178;8.370;2023-12-04T08:29:39;97849.34;;;-2.03;88.21
18858;BME280;9558;50.178;8.370;2023-12-04T08:32:27;97836.66;;;-2.03;88.01
18858;BME280;9558;50.178;8.370;2023-12-04T08:35:13;97830.84;;;-2.05;87.26
18858;BME280;9558;50.178;8.370;2023-12-04T08:38:00;97834.00;;;-2.01;87.80
18858;BME280;9558;50.178;8.370;2023-12-04T08:40:47;97822.84;;;-1.99;87.72
18858;BME280;9558;50.178;8.370;2023-12-04T08:43:34;97815.94;;;-1.97;88.09
18858;BME280;9558;50.178;8.370;2023-12-04T08:46:20;97814.31;;;-1.98;86.44
18858;BME280;9558;50.178;8.370;2023-12-04T08:49:09;97802.16;;;-1.93;87.60
18858;BME280;9558;50.178;8.370;2023-12-04T08:51:55;97785.59;;;-1.85;88.08
18858;BME280;9558;50.178;8.370;2023-12-04T08:54:42;97807.97;;;-1.79;87.13
18858;BME280;9558;50.178;8.370;2023-12-04T08:57:29;97790.50;;;-1.71;86.78
18858;BME280;9558;50.178;8.370;2023-12-04T09:00:16;97786.84;;;-1.67;87.61
18858;BME280;9558;50.178;8.370;2023-12-04T09:03:03;97783.97;;;-1.62;86.70
18858;BME280;9558;50.178;8.370;2023-12-04T09:05:51;97780.19;;;-1.57;87.19
18858;BME280;9558;50.178;8.370;2023-12-04T09:08:40;97781.72;;;-1.54;86.86
18858;BME280;9558;50.178;8.370;2023-12-04T09:11:27;97786.03;;;-1.43;86.75
18858;BME280;9558;50.178;8.370;2023-12-04T09:14:14;97781.09;;;-1.33;87.10
18858;BME280;9558;50.178;8.370;2023-12-04T09:17:01;97790.56;;;-1.35;83.67
18858;BME280;9558;50.178;8.370;2023-12-04T09:19:49;97793.91;;;-1.35;85.12
18858;BME280;9558;50.178;8.370;2023-12-04T09:22:37;97789.97;;;-1.39;83.95
18858;BME280;9558;50.178;8.370;2023-12-04T09:25:26;97801.53;;;-1.35;82.98
18858;BME280;9558;50.178;8.370;2023-12-04T09:28:13;97809.25;;;-1.36;83.98
18858;BME280;9558;50.178;8.370;2023-12-04T09:31:00;97807.25;;;-1.44;82.63
18858;BME280;9558;50.178;8.370;2023-12-04T09:33:46;97814.75;;;-1.43;84.07
18858;BME280;9558;50.178;8.370;2023-12-04T09:36:33;97808.38;;;-1.48;83.84
18858;BME280;9558;50.178;8.370;2023-12-04T09:39:22;97813.47;;;-1.48;84.27
18858;BME280;9558;50.178;8.370;2023-12-04T09:42:09;97811.41;;;-1.43;85.66
18858;BME280;9558;50.178;8.370;2023-12-04T09:44:58;97813.63;;;-1.38;85.68
18858;BME280;9558;50.178;8.370;2023-12-04T09:47:47;97810.75;;;-1.34;84.77
18858;BME280;9558;50.178;8.370;2023-12-04T09:50:34;97809.03;;;-1.33;85.33
18858;BME280;9558;50.178;8.370;2023-12-04T09:53:21;97797.84;;;-1.31;85.52
18858;BME280;9558;50.178;8.370;2023-12-04T09:56:10;97798.97;;;-1.35;83.39
18858;BME280;9558;50.178;8.370;2023-12-04T09:58:59;97802.13;;;-1.31;84.97
18858;BME280;9558;50.178;8.370;2023-12-04T10:01:46;97801.75;;;-1.38;83.39
18858;BME280;9558;50.178;8.370;2023-12-04T10:04:33;97803.66;;;-1.42;83.29
18858;BME280;9558;50.178;8.370;2023-12-04T10:07:21;97799.44;;;-1.41;85.00
18858;BME280;9558;50.178;8.370;2023-12-04T10:10:08;97790.63;;;-1.48;83.20
18858;BME280;9558;50.178;8.370;2023-12-04T10:12:56;97795.94;;;-1.51;83.96
18858;BME280;9558;50.178;8.370;2023-12-04T10:15:47;97794.97;;;-1.50;84.34
18858;BME280;9558;50.178;8.370;2023-12-04T10:18:34;97791.81;;;-1.41;85.67
18858;BME280;9558;50.178;8.370;2023-12-04T10:21:21;97788.94;;;-1.36;85.04
18858;BME280;9558;50.178;8.370;2023-12-04T10:24:09;97773.97;;;-1.28;85.98
18858;BME280;9558;50.178;8.370;2023-12-04T10:26:55;97766.50;;;-1.18;86.30
18858;BME280;9558;50.178;8.370;2023-12-04T10:29:45;97755.69;;;-1.09;85.96
18858;BME280;9558;50.178;8.370;2023-12-04T10:32:36;97750.84;;;-1.01;86.21
18858;BME280;9558;50.178;8.370;2023-12-04T10:35:13;97767.22;;;-1.05;82.86
18858;BME280;9558;50.178;8.370;2023-12-04T10:38:00;97756.38;;;-0.96;84.48
18858;BME280;9558;50.178;8.370;2023-12-04T10:40:48;97736.06;;;-0.96;84.17
18858;BME280;9558;50.178;8.370;2023-12-04T10:43:35;97753.84;;;-0.96;83.43
18858;BME280;9558;50.178;8.370;2023-12-04T10:46:24;97761.13;;;-1.02;80.79
18858;BME280;9558;50.178;8.370;2023-12-04T10:49:11;97761.84;;;-0.89;83.91
18858;BME280;9558;50.178;8.370;2023-12-04T10:52:00;97759.91;;;-0.85;83.01
18858;BME280;9558;50.178;8.370;2023-12-04T10:54:47;97765.19;;;-0.89;81.87
18858;BME280;9558;50.178;8.370;2023-12-04T10:57:37;97766.13;;;-0.90;82.51
18858;BME280;9558;50.178;8.370;2023-12-04T11:00:24;97760.00;;;-0.87;81.17
18858;BME280;9558;50.178;8.370;2023-12-04T11:03:19;97762.44;;;-0.85;82.55
18858;BME280;9558;50.178;8.370;2023-12-04T11:06:10;97760.34;;;-0.80;83.80
18858;BME280;9558;50.178;8.370;2023-12-04T11:08:58;97746.97;;;-0.82;82.22
18858;BME280;9558;50.178;8.370;2023-12-04T11:11:49;97742.81;;;-0.72;82.87
18858;BME280;9558;50.178;8.370;2023-12-04T11:14:42;97728.47;;;-0.73;81.86
18858;BME280;9558;50.178;8.370;2023-12-04T11:17:32;97712.56;;;-0.75;81.30
18858;BME280;9558;50.178;8.370;2023-12-04T11:20:24;97705.84;;;-0.76;80.48
18858;BME280;9558;50.178;8.370;2023-12-04T11:23:14;97699.72;;;-0.74;81.07
18858;BME280;9558;50.178;8.370;2023-12-04T11:26:02;97699.38;;;-0.80;82.23
18858;BME280;9558;50.178;8.370;2023-12-04T11:28:51;97697.97;;;-0.84;83.64
18858;BME280;9558;50.178;8.370;2023-12-04T11:31:39;97687.03;;;-0.85;84.37
18858;BME280;9558;50.178;8.370;2023-12-04T11:34:26;97684.84;;;-0.90;86.39
18858;BME280;9558;50.178;8.370;2023-12-04T11:37:15;97675.59;;;-1.02;87.33
18858;BME280;9558;50.178;8.370;2023-12-04T11:40:03;97669.09;;;-1.06;88.25
18858;BME280;9558;50.178;8.370;2023-12-04T11:42:52;97663.91;;;-1.16;92.55
18858;BME280;9558;50.178;8.370;2023-12-04T11:45:39;97662.41;;;-1.18;92.67
18858;BME280;9558;50.178;8.370;2023-12-04T11:48:26;97663.09;;;-1.16;89.94
18858;BME280;9558;50.178;8.370;2023-12-04T11:51:15;97644.19;;;-1.12;91.17
18858;BME280;9558;50.178;8.370;2023-12-04T11:54:23;97631.00;;;-1.17;92.56
18858;BME280;9558;50.178;8.370;2023-12-04T11:57:21;97628.03;;;-1.23;94.93
18858;BME280;9558;50.178;8.370;2023-12-04T12:00:12;97628.03;;;-1.23;93.43
18858;BME280;9558;50.178;8.370;2023-12-04T12:03:04;97622.03;;;-1.33;93.83
18858;BME280;9558;50.178;8.370;2023-12-04T12:05:52;97612.53;;;-1.42;93.73
18858;BME280;9558;50.178;8.370;2023-12-04T12:08:39;97608.16;;;-1.51;96.67
18858;BME280;9558;50.178;8.370;2023-12-04T12:11:28;97597.06;;;-1.50;95.26
18858;BME280;9558;50.178;8.370;2023-12-04T12:14:14;97586.00;;;-1.49;95.45
18858;BME280;9558;50.178;8.370;2023-12-04T12:17:01;97585.75;;;-1.46;96.66
18858;BME280;9558;50.178;8.370;2023-12-04T12:19:48;97572.97;;;-1.45;96.43
18858;BME280;9558;50.178;8.370;2023-12-04T12:22:36;97564.31;;;-1.42;96.18
18858;BME280;9558;50.178;8.370;2023-12-04T12:25:23;97561.31;;;-1.47;97.65
18858;BME280;9558;50.178;8.370;2023-12-04T12:28:13;97564.31;;;-1.53;98.50
18858;BME280;9558;50.178;8.370;2023-12-04T12:31:02;97553.91;;;-1.50;97.33
18858;BME280;9558;50.178;8.370;2023-12-04T12:33:49;97544.25;;;-1.57;97.68
18858;BME280;9558;50.178;8.370;2023-12-04T12:36:38;97539.41;;;-1.60;99.51
18858;BME280;9558;50.178;8.370;2023-12-04T12:39:27;97531.19;;;-1.63;100.00
18858;BME280;9558;50.178;8.370;2023-12-04T12:42:21;97527.16;;;-1.66;100.00
18858;BME280;9558;50.178;8.370;2023-12-04T12:45:10;97531.06;;;-1.62;100.00
18858;BME280;9558;50.178;8.370;2023-12-04T12:47:57;97528.78;;;-1.65;100.00
18858;BME280;9558;50.178;8.370;2023-12-04T12:50:45;97533.03;;;-1.65;100.00
18858;BME280;9558;50.178;8.370;2023-12-04T12:53:33;97521.97;;;-1.64;100.00
18858;BME280;9558;50.178;8.370;2023-12-04T12:56:20;97514.69;;;-1.69;100.00
18858;BME280;9558;50.178;8.370;2023-12-04T12:59:07;97498.31;;;-1.76;100.00
18858;BME280;9558;50.178;8.370;2023-12-04T13:01:55;97498.09;;;-1.73;100.00
18858;BME280;9558;50.178;8.370;2023-12-04T13:04:46;97478.16;;;-1.78;100.00
18858;BME280;9558;50.178;8.370;2023-12-04T13:07:32;97472.53;;;-1.70;100.00
18858;BME280;9558;50.178;8.370;2023-12-04T13:10:19;97458.22;;;-1.71;100.00
18858;BME280;9558;50.178;8.370;2023-12-04T13:13:09;97457.28;;;-1.70;100.00
18858;BME280;9558;50.178;8.370;2023-12-04T13:15:56;97457.06;;;-1.67;100.00
18858;BME280;9558;50.178;8.370;2023-12-04T13:18:46;97441.59;;;-1.64;100.00
18858;BME280;9558;50.178;8.370;2023-12-04T13:21:33;97442.75;;;-1.57;100.00
18858;BME280;9558;50.178;8.370;2023-12-04T13:24:20;97449.31;;;-1.54;100.00
18858;BME280;9558;50.178;8.370;2023-12-04T13:27:07;97427.75;;;-1.48;100.00
18858;BME280;9558;50.178;8.370;2023-12-04T13:29:54;97429.59;;;-1.50;100.00
18858;BME280;9558;50.178;8.370;2023-12-04T13:32:41;97403.66;;;-1.54;100.00
18858;BME280;9558;50.178;8.370;2023-12-04T13:35:29;97419.56;;;-1.52;100.00
18858;BME280;9558;50.178;8.370;2023-12-04T13:38:16;97412.53;;;-1.60;100.00
18858;BME280;9558;50.178;8.370;2023-12-04T13:41:04;97416.47;;;-1.67;100.00
18858;BME280;9558;50.178;8.370;2023-12-04T13:44:14;97401.16;;;-1.77;100.00
18858;BME280;9558;50.178;8.370;2023-12-04T13:47:00;97404.25;;;-1.84;100.00
18858;BME280;9558;50.178;8.370;2023-12-04T13:49:48;97396.19;;;-1.89;100.00
18858;BME280;9558;50.178;8.370;2023-12-04T13:52:36;97400.78;;;-1.83;100.00
18858;BME280;9558;50.178;8.370;2023-12-04T13:55:24;97395.47;;;-1.80;100.00
18858;BME280;9558;50.178;8.370;2023-12-04T13:58:29;97382.69;;;-1.79;100.00
18858;BME280;9558;50.178;8.370;2023-12-04T14:01:25;97384.88;;;-1.74;100.00
18858;BME280;9558;50.178;8.370;2023-12-04T14:04:14;97381.19;;;-1.70;100.00
18858;BME280;9558;50.178;8.370;2023-12-04T14:07:01;97374.50;;;-1.71;100.00
18858;BME280;9558;50.178;8.370;2023-12-04T14:09:50;97381.88;;;-1.68;100.00
18858;BME280;9558;50.178;8.370;2023-12-04T14:12:36;97367.34;;;-1.66;100.00
18858;BME280;9558;50.178;8.370;2023-12-04T14:15:23;97365.63;;;-1.65;100.00
18858;BME280;9558;50.178;8.370;2023-12-04T14:18:11;97366.28;;;-1.63;100.00
18858;BME280;9558;50.178;8.370;2023-12-04T14:20:58;97354.31;;;-1.61;100.00
18858;BME280;9558;50.178;8.370;2023-12-04T14:23:45;97359.69;;;-1.54;100.00
18858;BME280;9558;50.178;8.370;2023-12-04T14:26:33;97356.13;;;-1.52;100.00
18858;BME280;9558;50.178;8.370;2023-12-04T14:29:20;97348.16;;;-1.47;100.00
18858;BME280;9558;50.178;8.370;2023-12-04T14:32:07;97341.13;;;-1.44;100.00
18858;BME280;9558;50.178;8.370;2023-12-04T14:34:53;97338.22;;;-1.39;100.00
18858;BME280;9558;50.178;8.370;2023-12-04T14:37:40;97341.25;;;-1.45;100.00
18858;BME280;9558;50.178;8.370;2023-12-04T14:40:27;97328.06;;;-1.39;100.00
18858;BME280;9558;50.178;8.370;2023-12-04T14:43:15;97326.91;;;-1.35;100.00
18858;BME280;9558;50.178;8.370;2023-12-04T14:46:03;97323.56;;;-1.35;100.00
18858;BME280;9558;50.178;8.370;2023-12-04T14:48:50;97323.81;;;-1.38;100.00
18858;BME280;9558;50.178;8.370;2023-12-04T14:51:37;97324.59;;;-1.38;100.00
18858;BME280;9558;50.178;8.370;2023-12-04T14:54:24;97321.38;;;-1.40;100.00
18858;BME280;9558;50.178;8.370;2023-12-04T14:57:23;97317.78;;;-1.37;100.00